Terminal Aerodrome Forecast
Issued by NWS

Home | Current Version | Previous Version | Graphics & Text | Print | Product List | Glossary On
Versions: 1 2 3 4 5 6 7 8 9 10 11 12 13 14 15 16 17 18 19 20 21
000
FTUS43 KGRB 300400 AAA
TAFATW
TAF AMD
KATW 300431Z 3005/3024 34011G18KT P6SM -SN SCT028 OVC040
     FM300900 33011KT P6SM SCT025 SCT035
     FM301700 32006KT P6SM SCT030 BKN150=

USA.gov is the U.S. government's official web portal to all federal, state and local government web resources and services.